Time;durP1;ratioP1;P1;durP2;ratioP2;P2;SDS_P1;SDS_P2;PMS_P1;PMS_P2;Temp;Humidity;BMP_temperature;BMP_pressure;BME280_temperature;BME280_humidity;BME280_pressure;Samples;Min_cycle;Max_cycle;Signal;HPM_P1;HPM_P2
2024/02/20 00:01:02;;;;;;;1.70;1.30;;;;;;;;;;6220762;23;20231;-78
2024/02/20 00:03:30;;;;;;;2.30;1.50;;;;;;;;;;6246833;23;20185;-78
2024/02/20 00:06:03;;;;;;;3.17;1.50;;;;;;;;;;6220715;23;20165;-78
2024/02/20 00:08:30;;;;;;;1.60;1.40;;;;;;;;;;6221092;23;20165;-79
2024/02/20 00:10:59;;;;;;;1.40;1.23;;;;;;;;;;6247173;23;20165;-79
2024/02/20 00:13:25;;;;;;;1.40;1.20;;;;;;;;;;6193850;23;20219;-79
2024/02/20 00:15:52;;;;;;;2.97;1.53;;;;;;;;;;6219445;23;20165;-78
2024/02/20 00:18:20;;;;;;;1.50;1.20;;;;;;;;;;6246295;23;20165;-78
2024/02/20 00:20:47;;;;;;;2.13;1.33;;;;;;;;;;6246199;23;20172;-78
2024/02/20 00:23:14;;;;;;;1.33;0.87;;;;;;;;;;6219565;23;20216;-78
2024/02/20 00:25:46;;;;;;;1.53;1.23;;;;;;;;;;6219437;23;20228;-80
2024/02/20 00:28:13;;;;;;;2.07;1.00;;;;;;;;;;6219702;23;20177;-79
2024/02/20 00:30:41;;;;;;;1.47;1.33;;;;;;;;;;6245917;23;20662;-79
2024/02/20 00:33:13;;;;;;;1.63;1.10;;;;;;;;;;6219702;23;20236;-79
2024/02/20 00:35:43;;;;;;;1.87;1.00;;;;;;;;;;6194805;23;20199;-78
2024/02/20 00:38:13;;;;;;;1.97;0.90;;;;;;;;;;6219069;23;20224;-78
2024/02/20 00:40:42;;;;;;;1.13;0.80;;;;;;;;;;6246462;23;20215;-78
2024/02/20 00:43:13;;;;;;;1.10;0.73;;;;;;;;;;6246030;23;20183;-79
2024/02/20 00:45:39;;;;;;;1.43;0.90;;;;;;;;;;6246088;23;20161;-78
2024/02/20 00:48:08;;;;;;;1.93;0.90;;;;;;;;;;6245903;23;20171;-80
2024/02/20 00:50:35;;;;;;;1.47;0.90;;;;;;;;;;6218774;23;20173;-78
2024/02/20 00:53:03;;;;;;;1.10;0.90;;;;;;;;;;6246139;23;20163;-78
2024/02/20 00:55:30;;;;;;;1.50;0.70;;;;;;;;;;6219165;23;20177;-78
2024/02/20 00:58:03;;;;;;;1.40;0.70;;;;;;;;;;6246048;23;20180;-79
2024/02/20 01:00:30;;;;;;;0.70;0.70;;;;;;;;;;6219724;23;20222;-79
2024/02/20 01:03:02;;;;;;;0.70;0.70;;;;;;;;;;6246267;23;20176;-78
2024/02/20 01:05:29;;;;;;;1.60;0.73;;;;;;;;;;6246207;23;20189;-78
2024/02/20 01:07:59;;;;;;;1.30;0.70;;;;;;;;;;6246667;23;20207;-79
2024/02/20 01:10:25;;;;;;;1.73;0.60;;;;;;;;;;6219561;23;20189;-79
2024/02/20 01:12:55;;;;;;;2.40;0.80;;;;;;;;;;6219017;23;20193;-79
2024/02/20 01:15:25;;;;;;;1.80;0.83;;;;;;;;;;6219890;23;20165;-78
2024/02/20 01:17:53;;;;;;;1.63;0.80;;;;;;;;;;6219252;23;20616;-79
2024/02/20 01:20:24;;;;;;;0.70;0.70;;;;;;;;;;6246040;23;20145;-79
2024/02/20 01:22:54;;;;;;;1.63;0.77;;;;;;;;;;6246124;23;20205;-79
2024/02/20 01:25:23;;;;;;;1.90;0.80;;;;;;;;;;6246116;23;20165;-79
2024/02/20 01:27:52;;;;;;;1.27;0.80;;;;;;;;;;6246019;23;20161;-79
2024/02/20 01:30:20;;;;;;;0.77;0.67;;;;;;;;;;6218972;23;20192;-79
2024/02/20 01:32:48;;;;;;;0.70;0.70;;;;;;;;;;6246288;23;20235;-79
2024/02/20 01:35:15;;;;;;;1.83;0.80;;;;;;;;;;6246018;23;20161;-79
2024/02/20 01:37:42;;;;;;;1.87;1.00;;;;;;;;;;6194226;23;20288;-79
2024/02/20 01:40:09;;;;;;;1.40;0.90;;;;;;;;;;6219698;23;20161;-79
2024/02/20 01:42:39;;;;;;;3.03;0.90;;;;;;;;;;6233490;23;20177;-79
2024/02/20 01:45:06;;;;;;;2.73;0.80;;;;;;;;;;6246185;23;20161;-79
2024/02/20 01:47:33;;;;;;;1.57;0.80;;;;;;;;;;6246036;23;20243;-79
2024/02/20 01:50:00;;;;;;;2.00;0.80;;;;;;;;;;6245991;23;20237;-79
2024/02/20 01:52:30;;;;;;;1.77;1.00;;;;;;;;;;6245578;23;20188;-79
2024/02/20 01:55:01;;;;;;;2.73;1.03;;;;;;;;;;6246207;23;20193;-79
2024/02/20 01:57:31;;;;;;;1.00;0.70;;;;;;;;;;6245902;23;20164;-79
2024/02/20 02:00:00;;;;;;;1.10;0.90;;;;;;;;;;6220004;23;20144;-79
2024/02/20 02:02:37;;;;;;;1.20;0.70;;;;;;;;;;6245495;23;20208;-79
2024/02/20 02:05:04;;;;;;;0.83;0.70;;;;;;;;;;6219285;23;20165;-79
2024/02/20 02:07:35;;;;;;;2.90;1.00;;;;;;;;;;6218963;23;20248;-79
2024/02/20 02:10:06;;;;;;;1.53;0.70;;;;;;;;;;6246470;23;20235;-79
2024/02/20 02:12:35;;;;;;;0.90;0.70;;;;;;;;;;6219319;23;20169;-79
2024/02/20 02:15:04;;;;;;;3.20;1.10;;;;;;;;;;6246035;23;20218;-79
2024/02/20 02:17:30;;;;;;;1.20;0.97;;;;;;;;;;6246338;23;20165;-79
2024/02/20 02:19:57;;;;;;;2.13;1.10;;;;;;;;;;6194569;23;20199;-79
2024/02/20 02:22:24;;;;;;;1.50;1.00;;;;;;;;;;6245667;23;20236;-79
2024/02/20 02:24:54;;;;;;;1.57;1.00;;;;;;;;;;6246321;23;20235;-79
2024/02/20 02:27:21;;;;;;;2.33;1.10;;;;;;;;;;6219297;23;20608;-79
2024/02/20 02:29:48;;;;;;;1.50;0.97;;;;;;;;;;6246560;22;20276;-79
2024/02/20 02:32:14;;;;;;;3.30;1.10;;;;;;;;;;6219303;23;20180;-80
2024/02/20 02:34:42;;;;;;;1.77;0.90;;;;;;;;;;6246511;23;20160;-79
2024/02/20 02:37:08;;;;;;;1.63;0.80;;;;;;;;;;6219213;23;20169;-79
2024/02/20 02:39:42;;;;;;;1.87;0.90;;;;;;;;;;6245870;23;20162;-79
2024/02/20 02:42:09;;;;;;;2.67;1.00;;;;;;;;;;6246116;23;20155;-80
2024/02/20 02:44:41;;;;;;;2.60;1.10;;;;;;;;;;6246114;23;20173;-79
2024/02/20 02:47:08;;;;;;;1.90;1.10;;;;;;;;;;6219627;23;20157;-79
2024/02/20 02:49:35;;;;;;;1.87;1.00;;;;;;;;;;6245889;23;20157;-79
2024/02/20 02:52:02;;;;;;;2.20;1.13;;;;;;;;;;6219771;23;20176;-79
2024/02/20 02:54:31;;;;;;;2.07;1.10;;;;;;;;;;6219344;23;20177;-79
2024/02/20 02:56:58;;;;;;;2.27;1.30;;;;;;;;;;6245960;23;20240;-79
2024/02/20 02:59:24;;;;;;;1.73;1.00;;;;;;;;;;6219170;23;20619;-79
2024/02/20 03:01:52;;;;;;;1.87;0.97;;;;;;;;;;6245933;23;20181;-79
2024/02/20 03:04:20;;;;;;;3.40;1.10;;;;;;;;;;6245822;23;20203;-79
2024/02/20 03:06:48;;;;;;;1.40;0.90;;;;;;;;;;6219574;23;20175;-80
2024/02/20 03:09:16;;;;;;;2.13;0.97;;;;;;;;;;6246054;23;20241;-79
2024/02/20 03:11:43;;;;;;;1.10;0.90;;;;;;;;;;6245022;23;20185;-79
2024/02/20 03:14:12;;;;;;;1.67;1.00;;;;;;;;;;6246200;23;20157;-81
2024/02/20 03:16:42;;;;;;;3.07;1.30;;;;;;;;;;6247286;23;20166;-79
2024/02/20 03:19:09;;;;;;;1.90;1.23;;;;;;;;;;6195945;23;20180;-79
2024/02/20 03:21:37;;;;;;;1.80;1.10;;;;;;;;;;6235149;23;20185;-79
2024/02/20 03:24:06;;;;;;;1.97;1.00;;;;;;;;;;6246741;23;20196;-80
2024/02/20 03:26:33;;;;;;;2.63;1.40;;;;;;;;;;6247086;23;20161;-79
2024/02/20 03:29:00;;;;;;;1.87;1.10;;;;;;;;;;6247371;23;20223;-78
2024/02/20 03:31:26;;;;;;;2.70;1.20;;;;;;;;;;6246970;22;20267;-79
2024/02/20 03:33:56;;;;;;;1.77;1.00;;;;;;;;;;6247244;23;20231;-79
2024/02/20 03:36:25;;;;;;;2.37;1.03;;;;;;;;;;6220346;23;20670;-79
2024/02/20 03:38:52;;;;;;;2.73;1.10;;;;;;;;;;6247059;23;20184;-79
2024/02/20 03:41:23;;;;;;;2.40;1.13;;;;;;;;;;6220436;23;20668;-79
2024/02/20 03:43:49;;;;;;;1.93;1.10;;;;;;;;;;6220316;23;20193;-79
2024/02/20 03:46:19;;;;;;;2.73;1.00;;;;;;;;;;6247145;23;20157;-79
2024/02/20 03:48:46;;;;;;;1.97;1.27;;;;;;;;;;6247140;23;20240;-80
2024/02/20 03:51:14;;;;;;;1.90;1.10;;;;;;;;;;6247269;23;20222;-79
2024/02/20 03:53:45;;;;;;;2.60;1.03;;;;;;;;;;6219963;23;20176;-79
2024/02/20 03:56:15;;;;;;;3.77;1.17;;;;;;;;;;6220600;23;20153;-79
2024/02/20 03:58:42;;;;;;;1.60;0.87;;;;;;;;;;6247109;23;20612;-80
2024/02/20 04:01:09;;;;;;;1.77;1.00;;;;;;;;;;6246976;23;20165;-79
2024/02/20 04:03:37;;;;;;;2.00;1.00;;;;;;;;;;6246937;23;20184;-79
2024/02/20 04:06:05;;;;;;;2.90;1.00;;;;;;;;;;6220012;23;20173;-79
2024/02/20 04:08:32;;;;;;;1.67;1.00;;;;;;;;;;6219955;23;20172;-79
2024/02/20 04:10:59;;;;;;;1.53;0.80;;;;;;;;;;6219947;23;20163;-79
2024/02/20 04:13:28;;;;;;;2.20;0.90;;;;;;;;;;6247131;23;20168;-79
2024/02/20 04:15:57;;;;;;;1.50;0.80;;;;;;;;;;6247063;23;20219;-79
2024/02/20 04:18:24;;;;;;;1.30;0.83;;;;;;;;;;6220666;23;20169;-79
2024/02/20 04:20:51;;;;;;;1.73;0.83;;;;;;;;;;6247125;23;20161;-79
2024/02/20 04:23:23;;;;;;;1.47;0.90;;;;;;;;;;6247113;23;20252;-79
2024/02/20 04:25:52;;;;;;;1.93;0.70;;;;;;;;;;6247535;23;20180;-78
2024/02/20 04:28:19;;;;;;;1.13;0.90;;;;;;;;;;6220690;23;20161;-80
2024/02/20 04:30:53;;;;;;;0.90;0.90;;;;;;;;;;6219881;23;20228;-79
2024/02/20 04:33:24;;;;;;;2.17;1.00;;;;;;;;;;6247220;23;20169;-79
2024/02/20 04:35:52;;;;;;;1.83;0.93;;;;;;;;;;6247811;23;20165;-79
2024/02/20 04:38:18;;;;;;;1.03;0.70;;;;;;;;;;6247288;23;20172;-80
2024/02/20 04:40:45;;;;;;;1.70;0.90;;;;;;;;;;6220470;23;20171;-79
2024/02/20 04:43:12;;;;;;;1.40;0.90;;;;;;;;;;6220485;23;20192;-79
2024/02/20 04:45:39;;;;;;;2.50;0.80;;;;;;;;;;6247080;23;20188;-80
2024/02/20 04:48:05;;;;;;;1.30;0.83;;;;;;;;;;6247223;23;20211;-79
2024/02/20 04:50:33;;;;;;;2.20;0.97;;;;;;;;;;6220337;23;20275;-79
2024/02/20 04:53:01;;;;;;;1.53;0.80;;;;;;;;;;6246836;23;20161;-78
2024/02/20 04:55:33;;;;;;;0.90;0.80;;;;;;;;;;6247585;23;20149;-79
2024/02/20 04:57:59;;;;;;;1.63;0.90;;;;;;;;;;6195228;23;20175;-79
2024/02/20 05:00:29;;;;;;;2.30;1.07;;;;;;;;;;6247208;23;20169;-79
2024/02/20 05:02:58;;;;;;;3.40;1.10;;;;;;;;;;6247242;23;20153;-80
2024/02/20 05:05:26;;;;;;;1.87;0.90;;;;;;;;;;6246932;23;20161;-80
2024/02/20 05:07:59;;;;;;;2.13;0.90;;;;;;;;;;6246713;23;20610;-79
2024/02/20 05:10:26;;;;;;;1.50;0.90;;;;;;;;;;6195395;23;20161;-80
2024/02/20 05:12:55;;;;;;;3.00;1.40;;;;;;;;;;6246616;23;20169;-80
2024/02/20 05:15:22;;;;;;;2.37;0.93;;;;;;;;;;6220270;23;20180;-79
2024/02/20 05:17:51;;;;;;;1.73;1.00;;;;;;;;;;6220007;23;20165;-79
2024/02/20 05:20:18;;;;;;;1.47;0.90;;;;;;;;;;6220473;23;20165;-79
2024/02/20 05:22:44;;;;;;;1.40;0.80;;;;;;;;;;6246869;23;20165;-82
2024/02/20 05:25:15;;;;;;;1.20;0.90;;;;;;;;;;6246929;23;20334;-79
2024/02/20 05:27:44;;;;;;;1.50;0.87;;;;;;;;;;6220083;23;20165;-79
2024/02/20 05:30:14;;;;;;;1.13;0.70;;;;;;;;;;6240772;22;20193;-79
2024/02/20 05:32:40;;;;;;;2.40;0.87;;;;;;;;;;6190338;23;20198;-79
2024/02/20 05:35:13;;;;;;;2.07;1.00;;;;;;;;;;6216411;23;20168;-79
2024/02/20 05:37:40;;;;;;;1.47;0.80;;;;;;;;;;6189801;23;20162;-79
2024/02/20 05:40:14;;;;;;;1.27;0.80;;;;;;;;;;6216527;23;20160;-79
2024/02/20 05:42:44;;;;;;;1.70;1.00;;;;;;;;;;6189743;23;20169;-79
2024/02/20 05:45:11;;;;;;;1.13;0.77;;;;;;;;;;6216602;23;20182;-80
2024/02/20 05:47:40;;;;;;;1.10;0.87;;;;;;;;;;6165445;23;20639;-79
2024/02/20 05:50:07;;;;;;;1.13;0.90;;;;;;;;;;6189360;23;20180;-79
2024/02/20 05:52:35;;;;;;;0.80;0.70;;;;;;;;;;6216062;23;20243;-79
2024/02/20 05:55:02;;;;;;;0.80;0.80;;;;;;;;;;6216098;23;20168;-79
2024/02/20 05:57:30;;;;;;;1.87;1.10;;;;;;;;;;6216058;23;20692;-79
2024/02/20 05:59:58;;;;;;;0.77;0.77;;;;;;;;;;6189578;23;20508;-79
2024/02/20 06:02:25;;;;;;;0.90;0.87;;;;;;;;;;6190224;23;20173;-80
2024/02/20 06:04:54;;;;;;;1.70;0.80;;;;;;;;;;6189736;23;20189;-80
2024/02/20 06:07:21;;;;;;;1.03;0.70;;;;;;;;;;6215990;23;20166;-79
2024/02/20 06:09:51;;;;;;;1.07;0.60;;;;;;;;;;6190587;23;20551;-79
2024/02/20 06:12:18;;;;;;;1.47;0.90;;;;;;;;;;6188960;23;20644;-81
2024/02/20 06:14:45;;;;;;;1.00;0.80;;;;;;;;;;6189087;23;20162;-78
2024/02/20 06:17:11;;;;;;;1.00;0.60;;;;;;;;;;6215426;23;20163;-80
2024/02/20 06:19:39;;;;;;;1.77;0.90;;;;;;;;;;6215273;23;20168;-79
2024/02/20 06:22:08;;;;;;;1.17;1.03;;;;;;;;;;6189189;23;20180;-78
2024/02/20 06:24:35;;;;;;;0.90;0.70;;;;;;;;;;6215850;23;20240;-78
2024/02/20 06:27:06;;;;;;;0.80;0.70;;;;;;;;;;6215747;23;20174;-79
2024/02/20 06:29:34;;;;;;;1.40;0.80;;;;;;;;;;6189466;23;20161;-79
2024/02/20 06:32:00;;;;;;;1.10;0.73;;;;;;;;;;6243127;23;20239;-78
2024/02/20 06:34:27;;;;;;;1.07;0.83;;;;;;;;;;6219331;23;20215;-79
2024/02/20 06:36:56;;;;;;;1.40;0.80;;;;;;;;;;6218401;23;20227;-79
2024/02/20 06:39:31;;;;;;;2.10;0.70;;;;;;;;;;6220857;23;20160;-78
2024/02/20 06:42:02;;;;;;;0.93;0.70;;;;;;;;;;6245589;23;20220;-78
2024/02/20 06:44:29;;;;;;;1.50;0.90;;;;;;;;;;6245471;23;20201;-78
2024/02/20 06:46:57;;;;;;;1.27;0.70;;;;;;;;;;6218647;23;20169;-78
2024/02/20 06:49:24;;;;;;;1.13;0.90;;;;;;;;;;6246770;23;20163;-78
2024/02/20 06:51:52;;;;;;;1.20;0.80;;;;;;;;;;6247542;23;20165;-78
2024/02/20 06:54:19;;;;;;;1.90;0.63;;;;;;;;;;6247520;23;20185;-78
2024/02/20 06:56:47;;;;;;;1.73;0.90;;;;;;;;;;6220848;23;20208;-78
2024/02/20 06:59:14;;;;;;;1.30;1.00;;;;;;;;;;6220879;23;20288;-79
2024/02/20 07:01:40;;;;;;;1.00;0.90;;;;;;;;;;6195970;23;20607;-79
2024/02/20 07:04:13;;;;;;;1.57;1.07;;;;;;;;;;6221836;23;20180;-79
2024/02/20 07:06:40;;;;;;;1.33;1.00;;;;;;;;;;6221749;23;20149;-79
2024/02/20 07:09:07;;;;;;;1.27;1.00;;;;;;;;;;6221429;23;20161;-79
2024/02/20 07:11:38;;;;;;;1.53;1.10;;;;;;;;;;6196260;23;20203;-79
2024/02/20 07:14:07;;;;;;;1.83;1.00;;;;;;;;;;6248442;23;20152;-79
2024/02/20 07:16:35;;;;;;;1.00;0.90;;;;;;;;;;6248294;23;20157;-79
2024/02/20 07:19:02;;;;;;;1.20;1.00;;;;;;;;;;6247944;23;20176;-79
2024/02/20 07:21:34;;;;;;;1.10;1.00;;;;;;;;;;6196954;23;20248;-79
2024/02/20 07:24:04;;;;;;;1.53;1.00;;;;;;;;;;6248155;23;20634;-78
2024/02/20 07:26:30;;;;;;;1.30;0.97;;;;;;;;;;6221044;23;20173;-79
2024/02/20 07:28:58;;;;;;;2.30;1.10;;;;;;;;;;6247882;23;20172;-80
2024/02/20 07:31:25;;;;;;;2.30;1.20;;;;;;;;;;6248123;23;20197;-80
2024/02/20 07:33:52;;;;;;;1.13;0.97;;;;;;;;;;6221534;23;20164;-80
2024/02/20 07:36:35;;;;;;;2.97;1.20;;;;;;;;;;6248110;23;20172;-80
2024/02/20 07:39:02;;;;;;;0.93;0.93;;;;;;;;;;6196085;23;20171;-80
2024/02/20 07:41:31;;;;;;;1.27;1.00;;;;;;;;;;6196277;23;20252;-80
2024/02/20 07:44:00;;;;;;;1.77;0.97;;;;;;;;;;6247580;23;20204;-80
2024/02/20 07:46:29;;;;;;;1.30;0.90;;;;;;;;;;6248139;23;20241;-80
2024/02/20 07:48:59;;;;;;;1.40;0.83;;;;;;;;;;6248486;23;20169;-80
2024/02/20 07:51:26;;;;;;;1.67;1.23;;;;;;;;;;6221599;23;20158;-79
2024/02/20 07:53:55;;;;;;;0.90;0.90;;;;;;;;;;6221039;23;20168;-80
2024/02/20 07:56:25;;;;;;;1.87;1.20;;;;;;;;;;6248777;23;20157;-80
2024/02/20 07:58:55;;;;;;;1.13;1.00;;;;;;;;;;6249079;23;20157;-80
2024/02/20 08:01:22;;;;;;;0.90;0.90;;;;;;;;;;6222191;23;20194;-79
2024/02/20 08:03:53;;;;;;;1.93;1.20;;;;;;;;;;6248433;23;20153;-80
2024/02/20 08:06:20;;;;;;;1.33;1.00;;;;;;;;;;6247871;23;20165;-80
2024/02/20 08:08:47;;;;;;;1.83;1.00;;;;;;;;;;6247897;23;20248;-80
2024/02/20 08:11:14;;;;;;;1.37;1.00;;;;;;;;;;6247942;23;20161;-80
2024/02/20 08:13:47;;;;;;;3.50;1.20;;;;;;;;;;6246630;23;20202;-79
2024/02/20 08:16:16;;;;;;;1.20;1.00;;;;;;;;;;6222630;23;20168;-80
2024/02/20 08:18:43;;;;;;;1.27;1.00;;;;;;;;;;6248525;23;20188;-80
2024/02/20 08:21:11;;;;;;;1.37;0.80;;;;;;;;;;6248001;23;20189;-80
2024/02/20 08:23:39;;;;;;;1.40;0.90;;;;;;;;;;6197310;23;20220;-80
2024/02/20 08:26:09;;;;;;;1.40;0.90;;;;;;;;;;6248240;23;20195;-80
2024/02/20 08:28:36;;;;;;;1.60;0.97;;;;;;;;;;6235919;23;20173;-80
2024/02/20 08:31:18;;;;;;;1.67;0.73;;;;;;;;;;6248425;23;20190;-81
2024/02/20 08:33:46;;;;;;;1.97;0.90;;;;;;;;;;6248630;23;20220;-80
2024/02/20 08:36:13;;;;;;;1.67;1.00;;;;;;;;;;6248387;23;20158;-80
2024/02/20 08:38:42;;;;;;;1.10;1.00;;;;;;;;;;6221150;23;20174;-80
2024/02/20 08:41:13;;;;;;;1.47;1.00;;;;;;;;;;6247985;23;20237;-80
2024/02/20 08:43:45;;;;;;;1.20;0.87;;;;;;;;;;6248649;23;20173;-80
2024/02/20 08:46:14;;;;;;;1.67;1.07;;;;;;;;;;6221834;23;20239;-80
2024/02/20 08:48:41;;;;;;;1.33;1.23;;;;;;;;;;6248697;23;20174;-79
2024/02/20 08:51:10;;;;;;;1.53;0.90;;;;;;;;;;6222349;23;20188;-80
2024/02/20 08:53:37;;;;;;;1.00;0.90;;;;;;;;;;6221746;23;20165;-80
2024/02/20 08:56:06;;;;;;;1.00;0.90;;;;;;;;;;6249049;23;20162;-80
2024/02/20 08:58:36;;;;;;;1.70;1.00;;;;;;;;;;6249170;23;20196;-80
2024/02/20 09:01:06;;;;;;;2.13;1.00;;;;;;;;;;6249120;23;20164;-80
2024/02/20 09:03:32;;;;;;;1.07;0.77;;;;;;;;;;6222621;23;20499;-80
2024/02/20 09:06:05;;;;;;;1.27;0.93;;;;;;;;;;6245383;23;20188;-80
2024/02/20 09:08:32;;;;;;;0.83;0.83;;;;;;;;;;6223143;23;20166;-79
2024/02/20 09:11:03;;;;;;;1.50;1.00;;;;;;;;;;6222563;23;20169;-80
2024/02/20 09:13:31;;;;;;;0.93;0.90;;;;;;;;;;6197147;23;20161;-80
2024/02/20 09:15:58;;;;;;;1.00;0.87;;;;;;;;;;6248975;23;20192;-80
2024/02/20 09:18:25;;;;;;;0.80;0.80;;;;;;;;;;6249207;23;20215;-80
2024/02/20 09:20:54;;;;;;;0.80;0.80;;;;;;;;;;6248978;23;20161;-80
2024/02/20 09:23:28;;;;;;;0.90;0.80;;;;;;;;;;6225924;23;20251;-80
2024/02/20 09:25:55;;;;;;;0.80;0.70;;;;;;;;;;6223931;23;20224;-80
2024/02/20 09:28:22;;;;;;;0.80;0.80;;;;;;;;;;6248049;23;20188;-80
2024/02/20 09:30:51;;;;;;;1.17;0.60;;;;;;;;;;6247917;23;20243;-80
2024/02/20 09:33:20;;;;;;;0.67;0.67;;;;;;;;;;6247768;23;20191;-80
2024/02/20 09:35:47;;;;;;;0.50;0.50;;;;;;;;;;6248096;23;20178;-79
2024/02/20 09:38:16;;;;;;;0.70;0.60;;;;;;;;;;6222495;23;20171;-80
2024/02/20 09:40:47;;;;;;;0.70;0.70;;;;;;;;;;6223089;23;20173;-80
2024/02/20 09:43:17;;;;;;;1.13;0.50;;;;;;;;;;6221447;23;20251;-80
2024/02/20 09:45:45;;;;;;;0.77;0.50;;;;;;;;;;6250037;23;20234;-80
2024/02/20 09:48:18;;;;;;;0.60;0.60;;;;;;;;;;6222669;23;20186;-80
2024/02/20 09:50:47;;;;;;;0.70;0.70;;;;;;;;;;6196907;23;20179;-80
2024/02/20 09:53:14;;;;;;;1.77;0.80;;;;;;;;;;6248071;23;20170;-80
2024/02/20 09:55:44;;;;;;;0.60;0.60;;;;;;;;;;6222051;23;20202;-80
2024/02/20 09:58:12;;;;;;;0.80;0.80;;;;;;;;;;6221803;23;20176;-80
2024/02/20 10:00:39;;;;;;;1.00;0.80;;;;;;;;;;6222210;23;20176;-80
2024/02/20 10:03:09;;;;;;;1.17;0.80;;;;;;;;;;6249751;23;20186;-80
2024/02/20 10:05:44;;;;;;;1.00;0.80;;;;;;;;;;6255239;23;20182;-81
2024/02/20 10:08:25;;;;;;;1.23;1.00;;;;;;;;;;6203790;23;20157;-81
2024/02/20 10:11:06;;;;;;;1.90;1.00;;;;;;;;;;6203073;23;20147;-81
2024/02/20 10:13:51;;;;;;;0.90;0.90;;;;;;;;;;6225179;23;20202;-81
2024/02/20 10:16:27;;;;;;;1.80;1.20;;;;;;;;;;6224905;23;20182;-80
2024/02/20 10:18:58;;;;;;;0.90;0.90;;;;;;;;;;6225495;23;20152;-80
2024/02/20 10:21:28;;;;;;;1.20;1.10;;;;;;;;;;6222797;23;20167;-81
2024/02/20 10:24:05;;;;;;;1.27;1.10;;;;;;;;;;6223487;23;20174;-81
2024/02/20 10:26:54;;;;;;;1.03;0.93;;;;;;;;;;6224912;23;20192;-80
2024/02/20 10:29:40;;;;;;;1.13;0.90;;;;;;;;;;6227602;23;20171;-81
2024/02/20 10:32:22;;;;;;;1.20;1.10;;;;;;;;;;6223003;23;20708;-81
2024/02/20 10:35:00;;;;;;;1.33;0.90;;;;;;;;;;6200073;23;20196;-81
2024/02/20 10:37:28;;;;;;;1.10;1.00;;;;;;;;;;6198130;23;20186;-80
2024/02/20 10:40:06;;;;;;;1.40;1.30;;;;;;;;;;6225813;23;20218;-81
2024/02/20 10:42:58;;;;;;;1.60;1.50;;;;;;;;;;6229255;23;20186;-81
2024/02/20 10:45:26;;;;;;;1.47;1.37;;;;;;;;;;6225400;23;20229;-81
2024/02/20 10:47:56;;;;;;;2.77;1.40;;;;;;;;;;6224659;23;20172;-81
2024/02/20 10:50:36;;;;;;;2.60;1.50;;;;;;;;;;6250040;23;20521;-79
2024/02/20 10:53:06;;;;;;;2.67;1.37;;;;;;;;;;6221928;23;20183;-80
2024/02/20 10:55:36;;;;;;;1.90;1.50;;;;;;;;;;6249186;23;20149;-80
2024/02/20 10:58:07;;;;;;;2.47;1.77;;;;;;;;;;6195694;23;20189;-80
2024/02/20 11:00:36;;;;;;;2.50;1.67;;;;;;;;;;6221021;23;20166;-80
2024/02/20 11:03:08;;;;;;;1.60;1.50;;;;;;;;;;6221944;23;20613;-81
2024/02/20 11:05:54;;;;;;;1.67;1.57;;;;;;;;;;6221948;23;20252;-80
2024/02/20 11:08:45;;;;;;;1.93;1.60;;;;;;;;;;6228055;23;20224;-80
2024/02/20 11:11:14;;;;;;;1.77;1.40;;;;;;;;;;6222878;23;20159;-80
2024/02/20 11:14:02;;;;;;;2.37;1.30;;;;;;;;;;6248854;23;20183;-80
2024/02/20 11:16:35;;;;;;;1.93;1.43;;;;;;;;;;6222407;23;20204;-80
2024/02/20 11:19:08;;;;;;;1.60;1.30;;;;;;;;;;6224849;23;20158;-80
2024/02/20 11:21:35;;;;;;;2.30;1.50;;;;;;;;;;6223082;23;20258;-80
2024/02/20 11:24:10;;;;;;;2.43;1.30;;;;;;;;;;6251043;23;20160;-81
2024/02/20 11:26:47;;;;;;;1.40;1.30;;;;;;;;;;6224093;23;20192;-80
2024/02/20 11:29:28;;;;;;;3.07;1.47;;;;;;;;;;6249654;23;20169;-81
2024/02/20 11:32:09;;;;;;;1.20;1.00;;;;;;;;;;6251568;22;20201;-81
2024/02/20 11:34:43;;;;;;;1.57;1.10;;;;;;;;;;6224676;23;20540;-81
2024/02/20 11:37:13;;;;;;;1.27;1.07;;;;;;;;;;6251800;23;20246;-80
2024/02/20 11:39:44;;;;;;;1.20;1.10;;;;;;;;;;6225298;23;20172;-80
2024/02/20 11:42:16;;;;;;;1.27;1.00;;;;;;;;;;6251896;23;20141;-80
2024/02/20 11:44:48;;;;;;;1.20;1.10;;;;;;;;;;6252027;23;20164;-80
2024/02/20 11:47:20;;;;;;;1.03;0.97;;;;;;;;;;6225603;23;20176;-80
2024/02/20 11:49:49;;;;;;;1.00;0.93;;;;;;;;;;6224671;23;20502;-80
2024/02/20 11:52:23;;;;;;;1.53;0.90;;;;;;;;;;6250840;23;20159;-80
2024/02/20 11:54:56;;;;;;;0.83;0.83;;;;;;;;;;6222780;23;20169;-80
2024/02/20 11:57:26;;;;;;;0.50;0.50;;;;;;;;;;6249880;23;20152;-80
2024/02/20 11:59:54;;;;;;;0.90;0.73;;;;;;;;;;6223221;23;20170;-80
2024/02/20 12:02:24;;;;;;;0.80;0.70;;;;;;;;;;6250310;23;20188;-80
2024/02/20 12:04:59;;;;;;;0.70;0.63;;;;;;;;;;6198544;23;20170;-80
2024/02/20 12:07:31;;;;;;;0.93;0.80;;;;;;;;;;6223728;23;20169;-80
2024/02/20 12:10:07;;;;;;;0.70;0.70;;;;;;;;;;6253097;23;20170;-82
2024/02/20 12:12:39;;;;;;;0.60;0.53;;;;;;;;;;6225046;23;20190;-80
2024/02/20 12:15:11;;;;;;;0.67;0.67;;;;;;;;;;6250562;23;20155;-80
2024/02/20 12:17:46;;;;;;;1.00;0.90;;;;;;;;;;6250207;23;20207;-80
2024/02/20 12:20:22;;;;;;;1.10;1.00;;;;;;;;;;6250592;23;20173;-80
2024/02/20 12:22:57;;;;;;;0.80;0.80;;;;;;;;;;6198891;23;20190;-80
2024/02/20 12:25:24;;;;;;;1.23;1.13;;;;;;;;;;6223929;23;20186;-80
2024/02/20 12:27:57;;;;;;;1.23;1.10;;;;;;;;;;6224285;23;20222;-80
2024/02/20 12:30:26;;;;;;;1.27;1.10;;;;;;;;;;6249971;22;20218;-80
2024/02/20 12:32:56;;;;;;;1.20;1.10;;;;;;;;;;6224088;23;20173;-80
2024/02/20 12:35:24;;;;;;;1.03;1.00;;;;;;;;;;6223520;23;20253;-80
2024/02/20 12:37:51;;;;;;;1.03;1.03;;;;;;;;;;6249682;23;20189;-80
2024/02/20 12:40:20;;;;;;;1.00;1.00;;;;;;;;;;6215370;23;20167;-81
2024/02/20 12:42:49;;;;;;;1.27;1.17;;;;;;;;;;6221974;23;20620;-80
2024/02/20 12:45:21;;;;;;;1.20;1.10;;;;;;;;;;6249685;23;20190;-80
2024/02/20 12:47:52;;;;;;;1.30;1.20;;;;;;;;;;6222866;23;20208;-80
2024/02/20 12:50:19;;;;;;;1.77;1.20;;;;;;;;;;6250103;23;20164;-81
2024/02/20 12:52:49;;;;;;;1.50;1.40;;;;;;;;;;6249872;23;20229;-80
2024/02/20 12:55:19;;;;;;;1.33;1.23;;;;;;;;;;6222609;23;20616;-80
2024/02/20 12:57:49;;;;;;;1.90;1.20;;;;;;;;;;6222708;23;20533;-80
2024/02/20 13:00:17;;;;;;;1.33;1.13;;;;;;;;;;6223226;23;20166;-80
2024/02/20 13:02:44;;;;;;;1.30;1.20;;;;;;;;;;6224148;23;20161;-80
2024/02/20 13:05:18;;;;;;;1.20;1.10;;;;;;;;;;6222893;23;20175;-80
2024/02/20 13:07:51;;;;;;;1.30;1.07;;;;;;;;;;6250731;23;20154;-80
2024/02/20 13:10:21;;;;;;;2.00;1.10;;;;;;;;;;6224567;23;20249;-80
2024/02/20 13:12:53;;;;;;;0.80;0.80;;;;;;;;;;6226229;23;20248;-81
2024/02/20 13:15:27;;;;;;;1.13;1.00;;;;;;;;;;6226046;23;20177;-80
2024/02/20 13:17:55;;;;;;;2.03;1.07;;;;;;;;;;6251980;23;20601;-80
2024/02/20 13:20:26;;;;;;;1.30;1.00;;;;;;;;;;6251266;23;20175;-80
2024/02/20 13:22:56;;;;;;;1.40;0.90;;;;;;;;;;6225361;23;20596;-80
2024/02/20 13:25:23;;;;;;;0.90;0.90;;;;;;;;;;6223649;23;20240;-80
2024/02/20 13:27:55;;;;;;;0.90;0.90;;;;;;;;;;6250404;23;20242;-80
2024/02/20 13:30:22;;;;;;;0.93;0.90;;;;;;;;;;6222935;22;20170;-80
2024/02/20 13:32:53;;;;;;;0.90;0.90;;;;;;;;;;6224806;23;20157;-79
2024/02/20 13:35:29;;;;;;;1.00;0.90;;;;;;;;;;6225918;23;20151;-80
2024/02/20 13:37:59;;;;;;;1.37;0.80;;;;;;;;;;6193498;23;20198;-80
2024/02/20 13:40:30;;;;;;;1.00;0.90;;;;;;;;;;6224452;23;20154;-80
2024/02/20 13:43:00;;;;;;;0.80;0.80;;;;;;;;;;6223145;23;20636;-80
2024/02/20 13:45:44;;;;;;;0.90;0.90;;;;;;;;;;6222984;23;20190;-80
2024/02/20 13:48:15;;;;;;;0.80;0.77;;;;;;;;;;6223085;23;20154;-80
2024/02/20 13:50:43;;;;;;;0.60;0.60;;;;;;;;;;6198569;23;20206;-80
2024/02/20 13:53:14;;;;;;;0.60;0.60;;;;;;;;;;6224485;23;20566;-80
2024/02/20 13:55:47;;;;;;;1.27;0.70;;;;;;;;;;6249909;23;20163;-80
2024/02/20 13:58:17;;;;;;;1.70;0.80;;;;;;;;;;6248990;23;20171;-80
2024/02/20 14:00:47;;;;;;;0.70;0.70;;;;;;;;;;6222888;23;20165;-80
2024/02/20 14:03:27;;;;;;;1.07;0.77;;;;;;;;;;6249813;23;20170;-80
2024/02/20 14:05:57;;;;;;;1.47;0.80;;;;;;;;;;6249577;23;20172;-80
2024/02/20 14:08:25;;;;;;;1.13;0.70;;;;;;;;;;6249704;23;20171;-80
2024/02/20 14:10:55;;;;;;;1.53;0.60;;;;;;;;;;6249890;23;20170;-80
2024/02/20 14:13:30;;;;;;;1.10;0.80;;;;;;;;;;6249730;23;20631;-80
2024/02/20 14:15:58;;;;;;;0.77;0.73;;;;;;;;;;6223501;23;20166;-80
2024/02/20 14:18:25;;;;;;;0.87;0.80;;;;;;;;;;6222991;23;20176;-80
2024/02/20 14:20:57;;;;;;;1.63;0.80;;;;;;;;;;6222454;23;20598;-79
2024/02/20 14:23:30;;;;;;;1.47;0.90;;;;;;;;;;6220060;23;20166;-81
2024/02/20 14:25:57;;;;;;;1.07;0.90;;;;;;;;;;6222674;23;20638;-80
2024/02/20 14:28:29;;;;;;;1.17;0.80;;;;;;;;;;6249490;23;20186;-80
2024/02/20 14:31:02;;;;;;;1.57;0.90;;;;;;;;;;6222288;23;20199;-80
2024/02/20 14:33:29;;;;;;;0.90;0.90;;;;;;;;;;6249348;23;20210;-79
2024/02/20 14:35:58;;;;;;;1.30;0.90;;;;;;;;;;6196080;23;20511;-80
2024/02/20 14:38:30;;;;;;;2.07;1.10;;;;;;;;;;6222773;23;20175;-80
2024/02/20 14:41:08;;;;;;;1.10;1.00;;;;;;;;;;6250104;23;20151;-80
2024/02/20 14:43:40;;;;;;;1.87;1.10;;;;;;;;;;6249214;23;20203;-80
2024/02/20 14:46:08;;;;;;;1.27;0.93;;;;;;;;;;6221320;23;20227;-80
2024/02/20 14:48:39;;;;;;;1.10;0.93;;;;;;;;;;6222922;23;20161;-80
2024/02/20 14:51:09;;;;;;;1.07;1.07;;;;;;;;;;6196511;23;20172;-80
2024/02/20 14:53:53;;;;;;;1.70;0.90;;;;;;;;;;6250045;23;20160;-80
2024/02/20 14:56:27;;;;;;;0.80;0.80;;;;;;;;;;6200096;23;20167;-80
2024/02/20 14:58:54;;;;;;;1.17;0.80;;;;;;;;;;6196645;23;20177;-81